Time;durP1;ratioP1;P1;durP2;ratioP2;P2;SDS_P1;SDS_P2;PMS_P1;PMS_P2;Temp;Humidity;BMP_temperature;BMP_pressure;BME280_temperature;BME280_humidity;BME280_pressure;Samples;Min_cycle;Max_cycle;Signal;HPM_P1;HPM_P2
2022/01/16 00:02:09;;;;;;;9.70;8.80;;;;;;;2.33;89.11;101502.28;5052252;28;20201;-79
2022/01/16 00:04:34;;;;;;;10.20;9.30;;;;;;;2.36;89.62;101504.97;5052302;28;20205;-79
2022/01/16 00:07:03;;;;;;;10.53;9.53;;;;;;;2.43;89.43;101511.19;5051829;28;20215;-79
2022/01/16 00:09:32;;;;;;;10.90;10.00;;;;;;;2.33;89.65;101515.16;5051158;28;20304;-79
2022/01/16 00:12:00;;;;;;;9.83;8.93;;;;;;;2.33;90.06;101489.41;5048183;28;20212;-79
2022/01/16 00:14:28;;;;;;;10.43;9.53;;;;;;;2.31;89.18;101472.16;5052746;28;20921;-79
2022/01/16 00:16:54;;;;;;;10.40;9.50;;;;;;;2.22;90.47;101452.16;5052385;28;20197;-78
2022/01/16 00:19:21;;;;;;;10.40;9.40;;;;;;;2.27;89.94;101453.16;5051741;28;20209;-79
2022/01/16 00:21:47;;;;;;;11.00;9.93;;;;;;;2.34;89.51;101452.53;5051765;28;20619;-79
2022/01/16 00:24:13;;;;;;;9.70;8.90;;;;;;;2.27;90.24;101450.56;5052505;28;20269;-79
2022/01/16 00:26:41;;;;;;;12.23;11.13;;;;;;;2.25;89.62;101471.97;5076483;22;20276;-77
2022/01/16 00:29:09;;;;;;;11.07;9.97;;;;;;;2.21;89.56;101465.84;5028341;28;20232;-77
2022/01/16 00:31:37;;;;;;;10.80;9.77;;;;;;;2.20;90.57;101448.66;5029397;28;20206;-77
2022/01/16 00:34:04;;;;;;;13.13;11.90;;;;;;;2.26;90.96;101433.38;5031134;28;20203;-77
2022/01/16 00:36:31;;;;;;;14.17;12.77;;;;;;;2.30;91.43;101417.19;5031175;28;20284;-77
2022/01/16 00:38:58;;;;;;;12.90;11.60;;;;;;;2.43;92.13;101395.22;5031229;28;20268;-76
2022/01/16 00:41:25;;;;;;;12.37;11.17;;;;;;;2.47;91.97;101385.91;5030846;28;20208;-77
2022/01/16 00:43:54;;;;;;;12.43;11.23;;;;;;;2.48;91.81;101387.63;5031586;28;20210;-77
2022/01/16 00:46:21;;;;;;;12.10;10.90;;;;;;;2.43;92.80;101341.13;5034809;28;20284;-76
2022/01/16 00:48:48;;;;;;;13.33;10.87;;;;;;;2.51;92.89;101320.72;5034610;28;20222;-77
2022/01/16 00:51:15;;;;;;;13.43;12.13;;;;;;;2.53;92.75;101343.13;5034514;28;20661;-76
2022/01/16 00:53:43;;;;;;;13.77;12.03;;;;;;;2.53;93.05;101337.09;5034798;28;20249;-77
2022/01/16 00:56:10;;;;;;;12.57;11.27;;;;;;;2.57;93.27;101311.44;5035672;28;20229;-77
2022/01/16 00:58:36;;;;;;;14.40;13.00;;;;;;;2.65;92.51;101323.69;5034586;28;20247;-77
2022/01/16 01:01:04;;;;;;;14.63;13.13;;;;;;;2.57;nan;101308.88;5034174;28;20742;-77
2022/01/16 01:03:31;;;;;;;14.53;12.47;;;;;;;2.64;93.26;101309.06;5034494;28;20233;-77
2022/01/16 01:05:59;;;;;;;13.00;11.70;;;;;;;2.64;93.11;101307.34;5034514;28;20226;-77
2022/01/16 01:08:28;;;;;;;13.80;12.43;;;;;;;2.66;92.66;101326.31;5034012;28;20220;-75
2022/01/16 01:10:55;;;;;;;13.27;11.97;;;;;;;2.69;92.88;101282.56;5033958;28;20246;-74
2022/01/16 01:13:24;;;;;;;13.60;12.30;;;;;;;2.73;92.63;101283.53;5034308;28;20309;-77
2022/01/16 01:15:58;;;;;;;12.33;11.13;;;;;;;2.77;93.11;101270.78;5034397;28;20222;-77
2022/01/16 01:18:26;;;;;;;14.03;11.90;;;;;;;2.80;92.38;101282.88;5034309;28;20194;-77
2022/01/16 01:20:53;;;;;;;13.07;11.77;;;;;;;2.85;92.46;101277.81;5034027;28;20202;-77
2022/01/16 01:23:19;;;;;;;13.37;12.07;;;;;;;2.88;92.22;101285.66;5033946;28;20617;-76
2022/01/16 01:25:46;;;;;;;14.30;12.90;;;;;;;2.91;92.07;101290.88;5033914;28;20226;-76
2022/01/16 01:28:13;;;;;;;12.90;11.63;;;;;;;2.80;92.46;101295.75;5032167;28;20214;-77
2022/01/16 01:30:42;;;;;;;11.90;10.70;;;;;;;2.76;92.45;101281.91;5033797;28;20202;-77
2022/01/16 01:33:08;;;;;;;13.30;12.00;;;;;;;2.70;93.22;101284.31;5034026;28;20306;-76
2022/01/16 01:35:39;;;;;;;13.70;12.23;;;;;;;2.69;93.60;101267.09;5033900;28;20341;-76
2022/01/16 01:38:06;;;;;;;12.57;11.37;;;;;;;2.79;93.40;101252.75;5033891;28;20210;-77
2022/01/16 01:40:34;;;;;;;13.57;12.27;;;;;;;2.74;94.32;101239.75;5033816;28;20256;-77
2022/01/16 01:51:00;;;;;;;12.80;11.50;;;;;;;2.81;93.80;101199.53;5033596;28;20741;-77
2022/01/16 01:51:24;;;;;;;12.17;10.97;;;;;;;2.81;93.02;101166.00;5032862;28;20225;-77
2022/01/16 01:53:53;;;;;;;11.90;10.60;;;;;;;2.77;93.16;101167.66;5033814;28;20206;-77
2022/01/16 01:56:22;;;;;;;13.37;11.30;;;;;;;2.71;92.43;101210.44;5034047;28;20266;-77
2022/01/16 01:58:48;;;;;;;11.27;10.10;;;;;;;2.63;92.94;101215.38;5033292;28;20198;-76
2022/01/16 02:01:14;;;;;;;11.17;10.07;;;;;;;2.63;93.41;101214.53;5032881;28;20206;-76
2022/01/16 02:03:43;;;;;;;13.27;10.40;;;;;;;2.62;93.01;101212.75;5033218;28;20738;-77
2022/01/16 02:06:12;;;;;;;10.97;9.90;;;;;;;2.60;93.15;101194.72;5033110;28;20258;-77
2022/01/16 02:08:42;;;;;;;11.43;10.33;;;;;;;2.63;92.56;101214.53;5033132;28;20230;-77
2022/01/16 02:11:08;;;;;;;10.97;9.60;;;;;;;2.56;92.27;101223.81;5032756;28;20210;-77
2022/01/16 02:13:46;;;;;;;11.00;9.90;;;;;;;2.52;91.89;101245.19;5033027;28;20641;-77
2022/01/16 02:35:28;;;;;;;12.17;10.57;;;;;;;2.57;94.03;101192.91;5001860;28;20209;-76
2022/01/16 02:37:54;;;;;;;10.87;9.67;;;;;;;2.55;94.31;101176.53;5032504;28;20661;-77
2022/01/16 02:40:25;;;;;;;11.03;10.03;;;;;;;2.61;94.45;101169.81;5032434;28;20622;-77
2022/01/16 02:42:52;;;;;;;10.83;9.77;;;;;;;2.65;94.44;101172.47;5032462;28;20210;-75
2022/01/16 02:45:31;;;;;;;10.07;9.03;;;;;;;2.68;93.97;101172.56;5032466;28;20210;-77
2022/01/16 02:48:00;;;;;;;11.07;9.97;;;;;;;2.68;94.33;101185.47;5032500;28;20210;-77
2022/01/16 02:50:26;;;;;;;9.37;8.47;;;;;;;2.69;93.68;101189.78;5032283;28;20226;-76
2022/01/16 02:52:53;;;;;;;11.20;9.20;;;;;;;2.71;93.53;101188.09;5032275;28;20210;-77
2022/01/16 02:55:21;;;;;;;11.07;9.97;;;;;;;2.31;94.31;101168.19;5032600;28;20206;-76
2022/01/16 02:57:50;;;;;;;12.33;10.13;;;;;;;2.06;95.08;101134.06;5033548;28;20698;-76
2022/01/16 03:00:17;;;;;;;12.30;11.03;;;;;;;1.93;96.45;101111.38;5031877;28;20214;-76
2022/01/16 03:02:44;;;;;;;14.27;12.37;;;;;;;1.77;97.30;101079.19;5032429;28;20337;-77
2022/01/16 03:05:11;;;;;;;14.90;13.20;;;;;;;1.95;97.83;101061.66;5032062;28;20256;-77
2022/01/16 03:07:37;;;;;;;11.10;10.00;;;;;;;2.08;96.70;101062.88;5030855;28;20774;-77
2022/01/16 03:10:24;;;;;;;13.43;10.93;;;;;;;2.11;96.75;101072.38;5031861;28;20223;-76
2022/01/16 03:12:52;;;;;;;13.33;11.60;;;;;;;2.23;95.78;101077.81;5032090;28;20191;-77
2022/01/16 03:15:20;;;;;;;11.13;9.93;;;;;;;2.26;95.50;101097.63;5032193;28;20219;-77
2022/01/16 03:23:22;;;;;;;11.33;10.13;;;;;;;2.13;94.82;101094.75;5031663;28;20209;-77
2022/01/16 03:25:50;;;;;;;10.67;9.50;;;;;;;1.87;94.52;101101.78;5031787;28;20723;-76
2022/01/16 03:28:19;;;;;;;10.93;9.77;;;;;;;1.91;94.68;101092.44;5032273;28;20202;-77
2022/01/16 03:30:45;;;;;;;11.63;9.83;;;;;;;2.00;95.20;101108.13;5031053;28;20201;-77
2022/01/16 03:33:12;;;;;;;9.53;8.53;;;;;;;2.00;94.19;101108.13;5032097;28;20203;-76
2022/01/16 03:35:39;;;;;;;10.07;9.07;;;;;;;1.98;93.95;101115.81;5031760;28;20256;-77
2022/01/16 03:38:05;;;;;;;11.10;9.47;;;;;;;1.97;93.68;101134.66;5032102;28;20206;-77
2022/01/16 03:40:32;;;;;;;10.17;9.07;;;;;;;1.99;93.53;101138.16;5031341;28;20626;-77
2022/01/16 03:43:09;;;;;;;11.33;8.83;;;;;;;1.98;92.84;101141.56;5031316;28;20202;-77
2022/01/16 03:45:36;;;;;;;8.70;7.80;;;;;;;1.97;92.35;101147.53;5031757;28;20205;-77
2022/01/16 03:48:03;;;;;;;8.90;8.00;;;;;;;2.02;92.52;101152.78;5031931;28;20206;-76
2022/01/16 03:50:29;;;;;;;9.80;8.20;;;;;;;2.04;92.42;101156.28;5031163;28;20222;-76
2022/01/16 03:52:56;;;;;;;9.33;8.43;;;;;;;1.88;92.35;101167.84;5031843;28;20206;-77
2022/01/16 03:55:22;;;;;;;10.17;9.10;;;;;;;1.84;91.61;101175.47;5031270;28;20206;-77
2022/01/16 03:57:48;;;;;;;8.40;7.60;;;;;;;1.64;91.36;101178.31;5032408;28;20770;-77
2022/01/16 04:00:15;;;;;;;8.80;8.00;;;;;;;1.76;92.44;101178.72;5031050;28;20206;-76
2022/01/16 04:02:43;;;;;;;9.07;8.17;;;;;;;1.73;92.73;101155.44;5031738;28;20236;-76
2022/01/16 04:05:10;;;;;;;7.37;6.67;;;;;;;1.82;92.89;101149.66;5031729;28;20206;-76
2022/01/16 04:07:36;;;;;;;9.23;8.27;;;;;;;1.83;93.13;101142.84;5031230;28;20225;-77
2022/01/16 04:10:04;;;;;;;8.90;8.07;;;;;;;1.65;94.90;101117.47;5031043;28;20283;-77
2022/01/16 04:12:33;;;;;;;9.23;7.97;;;;;;;1.40;95.67;101103.88;5031176;28;20244;-77
2022/01/16 04:17:45;;;;;;;9.90;8.10;;;;;;;1.13;97.73;101043.13;5034427;28;20229;-77
2022/01/16 04:20:15;;;;;;;9.60;8.43;;;;;;;1.10;98.23;101016.44;5038607;28;20209;-78
2022/01/16 04:22:43;;;;;;;9.90;8.47;;;;;;;1.21;98.49;101012.50;5042194;28;20669;-77
2022/01/16 04:25:09;;;;;;;8.63;7.83;;;;;;;1.20;98.63;101018.44;5040170;28;20621;-77
2022/01/16 04:27:36;;;;;;;8.03;7.23;;;;;;;1.34;98.24;101014.56;5038088;28;20230;-77
2022/01/16 04:30:02;;;;;;;7.67;6.60;;;;;;;1.46;98.34;101019.16;5034992;28;20233;-77
2022/01/16 04:32:28;;;;;;;7.13;6.43;;;;;;;1.55;98.72;101027.13;5035034;28;20344;-76
2022/01/16 04:34:56;;;;;;;7.43;6.73;;;;;;;1.69;98.46;101040.38;5035373;28;20268;-77
2022/01/16 04:37:23;;;;;;;7.37;6.67;;;;;;;1.75;98.40;101058.56;5034916;28;20672;-76
2022/01/16 04:39:51;;;;;;;7.13;6.43;;;;;;;1.86;97.54;101069.13;5034849;28;20260;-77
2022/01/16 04:45:05;;;;;;;8.20;7.40;;;;;;;1.98;96.35;101115.81;5034946;28;20208;-76
2022/01/16 04:47:32;;;;;;;8.13;7.30;;;;;;;2.08;95.96;101131.50;5034619;28;20226;-77
2022/01/16 04:49:59;;;;;;;8.67;7.80;;;;;;;2.12;95.69;101139.38;5034537;28;20233;-77
2022/01/16 04:52:26;;;;;;;7.07;6.37;;;;;;;2.17;95.22;101132.63;5034635;28;20260;-77
2022/01/16 04:54:52;;;;;;;8.23;7.43;;;;;;;2.22;94.86;101143.06;5034876;28;20233;-77
2022/01/16 04:57:19;;;;;;;8.13;7.43;;;;;;;2.18;94.90;101151.50;5035491;28;20241;-76
2022/01/16 04:59:45;;;;;;;8.07;7.27;;;;;;;2.28;94.77;101156.09;5033928;28;20202;-76
2022/01/16 05:02:12;;;;;;;9.17;7.63;;;;;;;2.37;94.70;101155.44;5034801;28;20206;-77
2022/01/16 05:04:38;;;;;;;8.20;7.40;;;;;;;2.41;94.35;101175.31;5034693;28;20202;-77
2022/01/16 05:07:06;;;;;;;9.17;8.23;;;;;;;2.26;94.56;101170.63;5033889;28;20597;-77
2022/01/16 05:09:33;;;;;;;7.70;6.90;;;;;;;2.30;94.70;101167.31;5033998;28;20317;-77
2022/01/16 05:12:02;;;;;;;7.07;6.40;;;;;;;2.38;93.82;101172.66;5034069;28;20256;-76
2022/01/16 05:17:13;;;;;;;6.77;6.13;;;;;;;2.26;93.23;101174.91;5034252;28;20364;-77
2022/01/16 05:19:39;;;;;;;7.50;6.80;;;;;;;2.10;93.68;101165.88;5034117;28;20198;-77
2022/01/16 05:22:07;;;;;;;7.80;7.10;;;;;;;1.91;94.32;101152.50;5034197;28;20228;-77
2022/01/16 05:24:34;;;;;;;7.03;6.37;;;;;;;1.91;94.41;101120.75;5034183;28;20214;-77
2022/01/16 05:27:00;;;;;;;7.13;6.43;;;;;;;1.67;95.38;101096.09;5035077;28;20265;-77
2022/01/16 05:29:27;;;;;;;7.07;6.37;;;;;;;1.66;95.72;101062.59;5033839;28;20222;-75
2022/01/16 05:31:53;;;;;;;7.17;6.47;;;;;;;1.64;96.52;101056.53;5033035;28;20236;-76
2022/01/16 05:34:21;;;;;;;8.67;6.83;;;;;;;1.66;96.30;101047.16;5033901;28;20567;-76
2022/01/16 05:36:48;;;;;;;7.17;6.47;;;;;;;1.68;96.14;101055.78;5033728;28;20753;-77
2022/01/16 05:39:16;;;;;;;7.50;6.80;;;;;;;1.65;95.81;101051.44;5033976;28;20202;-76
2022/01/16 05:41:42;;;;;;;6.93;6.23;;;;;;;1.52;96.17;101049.34;5034002;28;20202;-76
2022/01/16 05:44:08;;;;;;;7.83;7.03;;;;;;;1.51;96.70;101045.91;5033095;28;20750;-76
2022/01/16 05:46:35;;;;;;;7.27;6.57;;;;;;;1.64;95.94;101039.38;5033694;28;20238;-77
2022/01/16 05:49:01;;;;;;;6.80;6.20;;;;;;;1.70;96.15;101049.81;5033379;28;20205;-77
2022/01/16 05:51:28;;;;;;;7.00;6.40;;;;;;;1.73;96.06;101067.94;5033550;28;20228;-77
2022/01/16 05:53:56;;;;;;;7.40;6.70;;;;;;;1.66;95.89;101062.59;5033736;28;20256;-77
2022/01/16 05:56:24;;;;;;;7.23;6.60;;;;;;;1.56;95.63;101059.75;5035068;28;20232;-77
2022/01/16 05:58:50;;;;;;;7.57;6.87;;;;;;;1.54;95.59;101061.41;5033054;28;20202;-77
2022/01/16 06:01:17;;;;;;;7.77;7.07;;;;;;;1.56;96.68;101040.88;5033156;28;20202;-77
2022/01/16 06:03:43;;;;;;;7.23;6.63;;;;;;;1.65;96.41;101037.69;5033475;28;20256;-77
2022/01/16 06:06:09;;;;;;;7.70;7.07;;;;;;;1.59;96.35;101034.13;5033208;28;20234;-76
2022/01/16 06:08:38;;;;;;;7.67;7.07;;;;;;;1.68;96.53;101035.19;5033252;28;20276;-76
2022/01/16 06:11:04;;;;;;;8.77;8.07;;;;;;;1.68;96.48;101050.63;5032807;28;20295;-77
2022/01/16 06:13:32;;;;;;;8.80;8.10;;;;;;;1.82;95.80;101061.28;5032886;28;20268;-77
2022/01/16 06:15:58;;;;;;;7.70;7.03;;;;;;;1.91;95.87;101067.56;5032954;28;20252;-77
2022/01/16 06:18:25;;;;;;;8.27;7.53;;;;;;;1.71;95.73;101086.75;5033065;28;20728;-76
2022/01/16 06:20:51;;;;;;;9.70;8.90;;;;;;;1.77;95.55;101080.06;5032702;28;20582;-77
2022/01/16 06:23:17;;;;;;;9.53;8.73;;;;;;;1.70;95.63;101079.84;5033218;28;20205;-77
2022/01/16 06:25:45;;;;;;;9.07;8.27;;;;;;;1.75;95.76;101073.13;5032888;28;20260;-76
2022/01/16 06:28:11;;;;;;;9.87;8.97;;;;;;;1.89;95.14;101074.38;5083696;22;20228;-78
2022/01/16 06:30:40;;;;;;;10.20;9.30;;;;;;;1.98;94.68;101091.75;5092690;28;20284;-78
2022/01/16 06:33:09;;;;;;;10.37;8.87;;;;;;;1.89;94.84;101094.09;5096295;28;20268;-81
2022/01/16 06:35:36;;;;;;;10.77;9.77;;;;;;;1.84;94.29;101101.69;5096732;28;20216;-80
2022/01/16 06:38:02;;;;;;;10.97;9.97;;;;;;;1.93;94.79;101094.22;5096297;28;20220;-81
2022/01/16 06:40:28;;;;;;;10.77;9.70;;;;;;;1.95;94.11;101099.41;5095557;28;20204;-81
2022/01/16 06:42:55;;;;;;;10.37;9.43;;;;;;;1.98;94.26;101105.53;5096279;28;20204;-78
2022/01/16 06:45:21;;;;;;;11.70;10.50;;;;;;;2.00;93.89;101123.56;5096649;28;20234;-81
2022/01/16 06:47:51;;;;;;;10.63;9.63;;;;;;;1.80;93.72;101123.00;5096512;28;20227;-80
2022/01/16 06:50:17;;;;;;;11.50;10.40;;;;;;;1.87;94.42;101114.66;5095287;28;20227;-78
2022/01/16 06:52:44;;;;;;;12.07;10.60;;;;;;;1.88;94.09;101125.81;5096112;28;20253;-82
2022/01/16 06:55:11;;;;;;;12.07;10.87;;;;;;;1.56;94.95;101128.34;5095967;28;20678;-81
2022/01/16 06:57:37;;;;;;;13.63;12.07;;;;;;;1.55;94.63;101108.59;5096412;28;20731;-79
2022/01/16 07:00:08;;;;;;;16.90;12.10;;;;;;;1.61;94.68;101107.91;5095992;28;20196;-79
2022/01/16 07:02:35;;;;;;;12.57;11.37;;;;;;;1.62;94.67;101102.78;5097264;28;20204;-80
2022/01/16 07:05:04;;;;;;;12.30;11.10;;;;;;;1.62;95.13;101104.50;5096915;28;20208;-82
2022/01/16 07:07:31;;;;;;;14.30;12.53;;;;;;;1.49;94.83;101096.44;5096645;28;20239;-81
2022/01/16 07:09:57;;;;;;;15.33;12.50;;;;;;;1.55;95.27;101093.19;5096486;28;20231;-80
2022/01/16 07:12:24;;;;;;;16.10;13.83;;;;;;;1.55;95.00;101109.47;5097152;28;20251;-81
2022/01/16 07:14:50;;;;;;;14.70;13.20;;;;;;;1.63;95.92;101116.56;5097451;28;20200;-81
2022/01/16 07:17:16;;;;;;;15.63;13.83;;;;;;;1.48;96.29;101107.53;5097156;28;20583;-80
2022/01/16 07:19:43;;;;;;;17.70;13.23;;;;;;;1.31;96.96;101089.06;5096631;28;20224;-80
2022/01/16 07:22:11;;;;;;;22.97;15.93;;;;;;;1.34;97.10;101076.28;5095861;28;20208;-81
2022/01/16 07:24:37;;;;;;;18.67;15.10;;;;;;;1.37;96.70;101078.09;5096787;28;20215;-81
2022/01/16 07:27:04;;;;;;;19.13;15.20;;;;;;;1.45;97.77;101080.84;5097330;28;20204;-80
2022/01/16 07:29:31;;;;;;;22.47;15.60;;;;;;;1.56;97.58;101087.19;5096168;28;20228;-81
2022/01/16 07:31:58;;;;;;;31.10;17.73;;;;;;;1.52;97.75;101091.34;5096781;28;20207;-80
2022/01/16 07:34:24;;;;;;;22.30;17.10;;;;;;;1.61;97.57;101085.63;5096721;28;20254;-80
2022/01/16 07:36:50;;;;;;;22.47;16.10;;;;;;;1.73;97.19;101096.25;5096245;28;20204;-81
2022/01/16 07:39:18;;;;;;;24.93;16.27;;;;;;;1.69;97.20;101099.56;5096472;28;20281;-80
2022/01/16 07:41:44;;;;;;;23.77;16.13;;;;;;;1.70;96.58;101106.44;5096695;28;20254;-80
2022/01/16 07:44:11;;;;;;;20.43;16.40;;;;;;;1.57;97.25;101109.53;5096480;28;20204;-81
2022/01/16 07:46:37;;;;;;;29.63;18.47;;;;;;;1.71;97.29;101089.31;5096502;28;20208;-81
2022/01/16 07:49:03;;;;;;;19.70;14.90;;;;;;;1.64;96.70;101108.84;5096195;28;20223;-80
2022/01/16 07:51:32;;;;;;;29.77;18.93;;;;;;;1.61;96.77;101118.22;5095914;28;20717;-81
2022/01/16 07:53:58;;;;;;;33.37;19.13;;;;;;;1.71;96.75;101117.63;5098907;28;20205;-81
2022/01/16 07:56:26;;;;;;;26.13;17.87;;;;;;;1.69;96.74;101119.28;5103167;28;20225;-81
2022/01/16 07:58:55;;;;;;;28.20;18.67;;;;;;;1.56;96.83;101112.91;5102942;28;20219;-81
2022/01/16 08:01:21;;;;;;;29.40;18.70;;;;;;;1.54;97.35;101117.13;5104080;28;20278;-81
2022/01/16 08:03:48;;;;;;;35.47;20.17;;;;;;;1.59;97.19;101095.88;5102843;28;20203;-81
2022/01/16 08:06:16;;;;;;;32.90;19.33;;;;;;;1.72;97.57;101097.06;5103181;28;20257;-81
2022/01/16 08:08:42;;;;;;;29.17;19.37;;;;;;;1.83;96.67;101117.97;5103172;28;20227;-81
2022/01/16 08:11:09;;;;;;;30.33;19.60;;;;;;;1.85;96.74;101130.88;5102888;28;20223;-81
2022/01/16 08:13:36;;;;;;;29.70;19.77;;;;;;;1.80;96.48;101128.16;5102382;28;20200;-81
2022/01/16 08:16:03;;;;;;;34.50;20.77;;;;;;;1.84;97.00;101127.41;5102817;28;20204;-81
2022/01/16 08:18:30;;;;;;;36.97;20.53;;;;;;;1.85;96.50;101126.59;5103387;28;20220;-82
2022/01/16 08:20:56;;;;;;;36.67;21.90;;;;;;;1.74;97.37;101123.72;5103242;28;20204;-82
2022/01/16 08:23:24;;;;;;;44.53;25.17;;;;;;;1.64;96.99;101106.28;5103397;28;20200;-81
2022/01/16 08:25:51;;;;;;;39.57;24.00;;;;;;;1.71;98.03;101086.75;5103382;28;20295;-81
2022/01/16 08:28:17;;;;;;;41.17;23.97;;;;;;;1.75;98.29;101083.44;5103182;28;20236;-83
2022/01/16 08:30:45;;;;;;;41.47;24.60;;;;;;;1.77;98.30;101072.34;5102251;28;20249;-80
2022/01/16 08:33:11;;;;;;;40.60;24.67;;;;;;;1.72;97.99;101068.75;5102671;28;20257;-79
2022/01/16 08:35:37;;;;;;;47.77;26.73;;;;;;;1.71;98.65;101077.31;5102732;28;20215;-79
2022/01/16 08:38:04;;;;;;;44.70;26.37;;;;;;;1.64;98.47;101067.69;5102462;28;20257;-79
2022/01/16 08:40:30;;;;;;;39.07;22.33;;;;;;;1.57;98.67;101055.50;5102802;28;20286;-79
2022/01/16 08:42:56;;;;;;;45.10;23.53;;;;;;;1.59;97.98;101061.56;5102174;28;20203;-79
2022/01/16 08:45:23;;;;;;;41.37;24.90;;;;;;;1.68;98.53;101058.34;5102080;28;20204;-79
2022/01/16 08:47:51;;;;;;;47.60;25.57;;;;;;;1.66;98.30;101062.59;5102345;28;20228;-79
2022/01/16 08:50:17;;;;;;;46.77;25.40;;;;;;;1.77;98.36;101068.91;5101645;28;20245;-79
2022/01/16 08:52:44;;;;;;;39.30;24.50;;;;;;;1.75;97.71;101065.41;5102453;28;20200;-80
2022/01/16 08:55:11;;;;;;;44.53;25.63;;;;;;;1.89;97.98;101071.78;5102874;28;20204;-79
2022/01/16 08:57:38;;;;;;;39.57;23.93;;;;;;;1.84;97.30;101075.06;5101928;28;20203;-78
2022/01/16 09:00:06;;;;;;;34.80;22.57;;;;;;;1.90;97.36;101080.38;5101229;28;20196;-79
2022/01/16 09:02:33;;;;;;;33.80;23.17;;;;;;;2.05;97.22;101082.50;5102779;28;20204;-78
2022/01/16 09:05:00;;;;;;;34.67;21.83;;;;;;;2.21;97.01;101099.22;5102197;28;20674;-79
2022/01/16 09:07:27;;;;;;;34.97;22.27;;;;;;;2.15;96.60;101126.56;5099429;28;20200;-79
2022/01/16 09:09:53;;;;;;;33.33;22.37;;;;;;;2.23;95.74;101120.75;5098868;28;20208;-80
2022/01/16 09:12:19;;;;;;;30.17;21.00;;;;;;;2.22;95.38;101131.84;5099198;28;20224;-79
2022/01/16 09:14:46;;;;;;;32.23;20.83;;;;;;;2.32;95.54;101139.88;5098627;28;20204;-79
2022/01/16 09:17:13;;;;;;;29.47;21.17;;;;;;;2.37;94.82;101153.75;5099186;28;20222;-79
2022/01/16 09:19:39;;;;;;;30.77;21.90;;;;;;;2.24;94.16;101169.72;5097758;28;20228;-80
2022/01/16 09:22:07;;;;;;;27.93;20.87;;;;;;;2.20;94.97;101170.47;5099215;28;20196;-79
2022/01/16 09:24:33;;;;;;;35.67;23.07;;;;;;;2.27;94.73;101174.94;5099430;28;20208;-79
2022/01/16 09:26:59;;;;;;;33.50;22.67;;;;;;;2.34;94.66;101181.16;5099973;28;20204;-80
2022/01/16 09:29:26;;;;;;;34.77;22.70;;;;;;;2.45;94.22;101186.56;5097357;28;20717;-78
2022/01/16 09:31:52;;;;;;;37.17;23.83;;;;;;;2.31;94.37;101183.63;5097607;28;20212;-79
2022/01/16 09:34:19;;;;;;;37.77;23.73;;;;;;;2.35;94.60;101173.44;5098340;28;20200;-80
2022/01/16 09:36:45;;;;;;;36.47;23.07;;;;;;;2.48;95.11;101160.88;5097977;28;20269;-79
2022/01/16 09:39:13;;;;;;;36.30;22.97;;;;;;;2.65;95.28;101146.72;5097107;28;20273;-79
2022/01/16 09:41:41;;;;;;;44.93;25.57;;;;;;;2.85;95.72;101136.88;5095412;28;20200;-78
2022/01/16 09:44:07;;;;;;;45.30;25.30;;;;;;;2.73;95.26;101155.50;5094762;28;20257;-79
2022/01/16 09:46:35;;;;;;;42.20;23.27;;;;;;;2.82;95.24;101141.97;5096144;28;20200;-78
2022/01/16 09:49:01;;;;;;;38.70;23.57;;;;;;;2.79;94.88;101165.09;5091615;28;20228;-78
2022/01/16 09:51:27;;;;;;;42.70;24.63;;;;;;;2.59;94.99;101169.75;5095501;28;20226;-79
2022/01/16 09:53:54;;;;;;;48.43;24.37;;;;;;;2.71;95.09;101162.31;5095235;28;20196;-78
2022/01/16 09:56:22;;;;;;;41.03;24.60;;;;;;;2.70;95.37;101150.28;5093505;28;20204;-78
2022/01/16 09:58:49;;;;;;;43.67;25.50;;;;;;;2.68;95.12;101151.09;5094203;28;20220;-78
2022/01/16 10:01:15;;;;;;;46.03;25.47;;;;;;;2.65;95.47;101146.72;5094088;28;20201;-77
2022/01/16 10:03:43;;;;;;;40.50;23.77;;;;;;;2.73;95.89;101134.88;5094109;28;20613;-78
2022/01/16 10:06:14;;;;;;;44.97;25.27;;;;;;;2.82;96.15;101128.22;5094079;28;20200;-77
2022/01/16 10:08:42;;;;;;;41.57;23.67;;;;;;;2.85;96.01;101136.00;5093952;28;20311;-77
2022/01/16 10:11:33;;;;;;;41.30;25.03;;;;;;;2.90;95.45;101160.22;5094240;28;20678;-79
2022/01/16 10:14:07;;;;;;;43.30;23.97;;;;;;;2.93;95.42;101149.97;5095029;28;20567;-78
2022/01/16 10:16:37;;;;;;;42.80;24.23;;;;;;;2.70;95.31;101164.88;5100584;28;20204;-79
2022/01/16 10:19:05;;;;;;;43.57;25.97;;;;;;;2.64;96.33;101147.56;5087851;28;20300;-78
2022/01/16 10:21:34;;;;;;;41.53;25.83;;;;;;;2.76;95.99;101126.38;5085202;28;20200;-79
2022/01/16 10:24:16;;;;;;;43.97;24.50;;;;;;;2.75;96.56;101130.63;5084898;28;20232;-78
2022/01/16 10:26:44;;;;;;;32.20;20.77;;;;;;;2.63;96.49;101122.59;5083839;28;20200;-79
2022/01/16 10:29:16;;;;;;;43.90;25.60;;;;;;;2.85;97.07;101102.50;5084745;28;20236;-78
2022/01/16 10:31:42;;;;;;;45.03;24.63;;;;;;;2.68;97.46;101102.97;5085338;28;20214;-78
2022/01/16 10:34:25;;;;;;;43.77;26.23;;;;;;;2.84;97.56;101090.47;5086541;28;20242;-78
2022/01/16 10:36:51;;;;;;;50.83;27.43;;;;;;;2.83;96.91;101093.84;5085896;28;20208;-79
2022/01/16 10:39:18;;;;;;;45.07;25.47;;;;;;;2.57;97.34;101100.13;5086867;28;20261;-77
2022/01/16 10:41:46;;;;;;;45.90;26.60;;;;;;;2.59;97.63;101074.41;5086132;28;20200;-79
2022/01/16 10:44:26;;;;;;;47.87;27.17;;;;;;;2.56;98.07;101069.19;5084815;28;20613;-78
2022/01/16 10:46:53;;;;;;;51.40;26.83;;;;;;;2.74;98.77;101056.72;5086148;28;20249;-78
2022/01/16 10:49:20;;;;;;;45.60;27.07;;;;;;;2.79;98.60;101038.78;5086204;28;20724;-78
2022/01/16 10:52:02;;;;;;;42.77;25.37;;;;;;;2.57;99.08;101046.00;5086314;28;20220;-78
2022/01/16 10:54:33;;;;;;;49.00;28.17;;;;;;;2.62;99.45;101030.69;5086255;28;20204;-79
2022/01/16 10:57:18;;;;;;;51.10;27.27;;;;;;;2.68;99.25;101023.06;5087049;28;20211;-78
2022/01/16 10:59:45;;;;;;;46.67;26.43;;;;;;;2.86;99.90;101016.59;5085717;28;20268;-79
2022/01/16 11:02:13;;;;;;;46.00;26.53;;;;;;;2.75;99.31;101032.66;5086158;28;20253;-78
2022/01/16 11:04:39;;;;;;;39.67;24.30;;;;;;;2.87;99.02;101021.75;5086040;28;20212;-79
2022/01/16 11:07:06;;;;;;;43.80;26.77;;;;;;;2.90;99.02;101032.16;5086370;28;20261;-79
2022/01/16 11:09:33;;;;;;;46.80;25.50;;;;;;;3.09;99.38;101036.00;5086264;28;20570;-80
2022/01/16 11:12:00;;;;;;;43.67;26.57;;;;;;;2.90;98.78;101045.06;5087060;28;21317;-78
2022/01/16 11:14:28;;;;;;;43.03;27.20;;;;;;;2.94;98.93;101027.94;5086451;28;20253;-78
2022/01/16 11:16:55;;;;;;;47.43;27.80;;;;;;;3.05;99.18;101016.13;5087983;28;20265;-79
2022/01/16 11:19:23;;;;;;;44.87;27.13;;;;;;;3.10;98.92;101027.44;5086306;28;20705;-79
2022/01/16 11:21:53;;;;;;;45.40;27.63;;;;;;;2.98;98.56;101033.19;5086720;28;20257;-78
2022/01/16 11:24:34;;;;;;;51.63;28.33;;;;;;;3.16;99.23;101019.81;5086244;28;20726;-79
2022/01/16 11:27:00;;;;;;;41.20;26.60;;;;;;;3.23;98.94;101028.56;5087555;28;20674;-79
2022/01/16 11:29:32;;;;;;;43.57;27.07;;;;;;;3.23;98.35;101048.31;5086409;28;20232;-78
2022/01/16 11:32:01;;;;;;;48.03;28.20;;;;;;;3.08;98.67;101035.97;5087435;28;20769;-78
2022/01/16 11:34:29;;;;;;;48.17;27.97;;;;;;;3.06;98.62;101028.19;5086703;28;20215;-79
2022/01/16 11:36:56;;;;;;;43.70;28.37;;;;;;;2.98;99.03;101009.13;5087397;28;20204;-77
2022/01/16 11:39:23;;;;;;;49.23;28.43;;;;;;;2.98;99.06;101020.28;5086211;28;21066;-79
2022/01/16 11:41:53;;;;;;;45.60;29.10;;;;;;;2.99;99.60;101016.00;5092355;28;21460;-78
2022/01/16 11:44:24;;;;;;;46.87;27.90;;;;;;;2.86;99.64;101008.88;5097775;28;20235;-78
2022/01/16 11:46:55;;;;;;;45.27;27.33;;;;;;;2.88;99.73;101005.47;5099270;28;20208;-78
2022/01/16 11:49:32;;;;;;;50.77;28.60;;;;;;;2.97;99.98;101004.78;5097881;28;20227;-77
2022/01/16 11:52:07;;;;;;;50.27;29.50;;;;;;;3.04;99.67;100993.78;5097206;28;20598;-78
2022/01/16 11:54:44;;;;;;;53.67;29.17;;;;;;;3.13;99.57;101000.81;5095442;28;20226;-77
2022/01/16 11:57:24;;;;;;;47.73;28.17;;;;;;;3.03;99.37;100999.75;5095208;28;20204;-78
2022/01/16 11:59:54;;;;;;;44.97;26.10;;;;;;;3.13;99.35;101004.28;5095748;28;20227;-78
2022/01/16 12:02:27;;;;;;;44.77;27.07;;;;;;;3.06;99.12;101010.16;5096907;28;20196;-78
2022/01/16 12:04:59;;;;;;;46.47;26.27;;;;;;;3.25;99.33;101011.41;5097296;28;20200;-78